createdAt,value
2023-07-08T00:00:31.229Z,100062.33
2023-07-08T00:01:33.525Z,100069.73
2023-07-08T00:02:35.677Z,100069.17
2023-07-08T00:03:37.825Z,100067.32
2023-07-08T00:04:40.763Z,100073.72
2023-07-08T00:05:44.417Z,100064.62
2023-07-08T00:06:46.959Z,100063.77
2023-07-08T00:07:49.346Z,100067.47
2023-07-08T00:08:51.625Z,100063.77
2023-07-08T00:09:53.676Z,100060.91
2023-07-08T00:10:56.879Z,100067.32
2023-07-08T00:11:59.465Z,100063.20
2023-07-08T00:13:01.632Z,100057.80
2023-07-08T00:14:04.094Z,100056.12
2023-07-08T00:15:07.372Z,100064.23
2023-07-08T00:16:16.244Z,100056.98
2023-07-08T00:17:18.728Z,100058.65
2023-07-08T00:18:20.793Z,100050.72
2023-07-08T00:19:24.798Z,100050.16
2023-07-08T00:20:39.199Z,100051.30
2023-07-08T00:21:41.648Z,100049.03
2023-07-08T00:22:43.954Z,100044.48
2023-07-08T00:23:50.967Z,100051.59
2023-07-08T00:24:53.135Z,100046.19
2023-07-08T00:25:55.853Z,100046.48
2023-07-08T00:26:58.673Z,100042.78
2023-07-08T00:28:01.017Z,100047.33
2023-07-08T00:29:03.421Z,100047.19
2023-07-08T00:31:22.281Z,100033.80
2023-07-08T00:32:24.695Z,100040.54
2023-07-08T00:33:27.263Z,100039.98
2023-07-08T00:34:29.497Z,100042.39
2023-07-08T00:35:35.290Z,100033.29
2023-07-08T00:36:38.682Z,100034.99
2023-07-08T00:37:42.282Z,100040.69
2023-07-08T00:38:45.593Z,100032.58
2023-07-08T00:39:48.296Z,100035.28
2023-07-08T00:41:00.130Z,100042.53
2023-07-08T00:43:39.239Z,100038.64
2023-07-08T00:44:42.295Z,100044.67
2023-07-08T00:46:02.211Z,100036.00
2023-07-08T00:47:05.330Z,100045.95
2023-07-08T00:48:28.491Z,100046.95
2023-07-08T00:49:47.525Z,100043.58
2023-07-08T00:50:51.291Z,100036.86
2023-07-08T00:51:53.518Z,100041.97
2023-07-08T00:53:24.720Z,100036.72
2023-07-08T00:54:27.220Z,100037.71
2023-07-08T00:55:29.858Z,100051.92
2023-07-08T00:59:31.246Z,100046.70
2023-07-08T01:00:41.361Z,100051.11
2023-07-08T01:01:44.609Z,100051.68
2023-07-08T01:02:50.968Z,100042.02
2023-07-08T01:04:00.444Z,100037.61
2023-07-08T01:05:07.648Z,100048.55
2023-07-08T01:06:10.746Z,100046.85
2023-07-08T01:07:12.996Z,100047.56
2023-07-08T01:08:15.267Z,100051.11
2023-07-08T01:09:19.833Z,100047.56
2023-07-08T01:10:34.927Z,100039.60
2023-07-08T01:11:40.733Z,100048.55
2023-07-08T01:12:46.772Z,100044.57
2023-07-08T01:13:51.993Z,100035.47
2023-07-08T01:14:56.090Z,100042.02
2023-07-08T01:15:58.829Z,100046.42
2023-07-08T01:17:01.907Z,100040.87
2023-07-08T01:18:04.225Z,100048.27
2023-07-08T01:19:10.004Z,100036.61
2023-07-08T01:20:12.553Z,100041.02
2023-07-08T01:21:39.481Z,100040.16
2023-07-08T01:22:44.680Z,100035.76
2023-07-08T01:23:47.370Z,100041.16
2023-07-08T01:24:49.749Z,100035.05
2023-07-08T01:25:52.416Z,100041.45
2023-07-08T01:26:55.106Z,100036.75
2023-07-08T01:27:58.321Z,100036.90
2023-07-08T01:29:02.437Z,100036.63
2023-07-08T01:30:06.406Z,100028.23
2023-07-08T01:31:09.325Z,100040.59
2023-07-08T01:32:13.943Z,100040.73
2023-07-08T01:33:21.078Z,100042.59
2023-07-08T01:34:24.852Z,100033.92
2023-07-08T01:35:27.261Z,100038.33
2023-07-08T01:37:45.827Z,100029.22
2023-07-08T01:38:48.937Z,100033.53
2023-07-08T01:39:51.437Z,100036.94
2023-07-08T01:40:56.545Z,100032.39
2023-07-08T01:41:59.718Z,100030.36
2023-07-08T01:43:03.889Z,100031.22
2023-07-08T01:44:08.051Z,100038.33
2023-07-08T01:45:16.404Z,100033.24
2023-07-08T01:47:32.096Z,100038.75
2023-07-08T01:48:39.123Z,100042.48
2023-07-08T01:49:43.437Z,100035.80
2023-07-08T01:52:12.218Z,100038.04
2023-07-08T01:53:21.384Z,100045.19
2023-07-08T01:54:24.245Z,100039.64
2023-07-08T01:55:27.792Z,100037.94
2023-07-08T01:56:30.721Z,100045.19
2023-07-08T01:57:33.028Z,100045.33
2023-07-08T01:58:35.557Z,100041.63
2023-07-08T01:59:37.838Z,100051.75
2023-07-08T02:00:41.339Z,100049.73
2023-07-08T02:01:43.624Z,100059.68
2023-07-08T02:02:45.963Z,100058.00
2023-07-08T02:03:48.219Z,100058.83
2023-07-08T02:04:50.917Z,100069.09
2023-07-08T02:05:53.310Z,100070.80
2023-07-08T02:06:59.674Z,100069.80
2023-07-08T02:08:03.310Z,100069.09
2023-07-08T02:09:05.670Z,100065.25
2023-07-08T02:10:09.233Z,100074.34
2023-07-08T02:11:12.018Z,100075.88
2023-07-08T02:12:14.531Z,100082.13
2023-07-08T02:13:16.725Z,100077.59
2023-07-08T02:14:19.118Z,100081.28
2023-07-08T02:15:21.385Z,100078.44
2023-07-08T02:16:23.523Z,100080.00
2023-07-08T02:17:25.941Z,100077.30
2023-07-08T02:18:28.199Z,100071.91
2023-07-08T02:19:30.475Z,100085.41
2023-07-08T02:20:33.308Z,100077.30
2023-07-08T02:21:35.976Z,100078.16
2023-07-08T02:22:38.547Z,100078.02
2023-07-08T02:23:40.892Z,100076.17
2023-07-08T02:24:43.021Z,100083.13
2023-07-08T02:25:53.083Z,100078.45
2023-07-08T02:26:55.329Z,100073.89
2023-07-08T02:27:57.802Z,100078.45
2023-07-08T02:29:00.822Z,100071.88
2023-07-08T02:30:03.222Z,100069.03
2023-07-08T02:31:05.660Z,100077.13
2023-07-08T02:32:09.607Z,100072.05
2023-07-08T02:33:12.283Z,100073.05
2023-07-08T02:34:14.711Z,100071.05
2023-07-08T02:35:17.032Z,100071.34
2023-07-08T02:36:19.712Z,100073.33
2023-07-08T02:37:22.114Z,100069.63
2023-07-08T02:38:24.421Z,100068.06
2023-07-08T02:39:26.484Z,100062.81
2023-07-08T02:40:29.187Z,100071.91
2023-07-08T02:41:31.458Z,100068.49
2023-07-08T02:42:34.133Z,100064.80
2023-07-08T02:43:36.449Z,100068.35
2023-07-08T02:44:38.752Z,100069.20
2023-07-08T02:45:40.997Z,100059.39
2023-07-08T02:46:43.912Z,100065.79
2023-07-08T02:47:46.654Z,100060.84
2023-07-08T02:48:49.169Z,100065.67
2023-07-08T02:49:51.214Z,100070.08
2023-07-08T02:50:59.818Z,100060.84
2023-07-08T02:52:02.390Z,100066.25
2023-07-08T02:53:04.531Z,100061.98
2023-07-08T02:54:07.159Z,100061.98
2023-07-08T02:55:09.432Z,100054.03
2023-07-08T02:56:12.450Z,100064.68
2023-07-08T02:57:15.188Z,100054.03
2023-07-08T02:58:17.505Z,100064.40
2023-07-08T02:59:20.949Z,100062.70
2023-07-08T03:00:23.457Z,100058.29
2023-07-08T03:01:25.685Z,100058.43
2023-07-08T03:02:28.104Z,100053.17
2023-07-08T03:03:30.500Z,100055.88
2023-07-08T03:04:35.337Z,100061.41
2023-07-08T03:05:37.745Z,100056.02
2023-07-08T03:06:41.385Z,100059.98
2023-07-08T03:07:43.841Z,100051.14
2023-07-08T03:08:46.165Z,100056.44
2023-07-08T03:09:48.373Z,100054.59
2023-07-08T03:11:00.396Z,100051.31
2023-07-08T03:12:02.972Z,100059.13
2023-07-08T03:13:06.620Z,100054.70
2023-07-08T03:14:09.148Z,100054.59
2023-07-08T03:15:11.823Z,100065.39
2023-07-08T03:16:14.503Z,100053.45
2023-07-08T03:17:16.944Z,100052.88
2023-07-08T03:18:19.412Z,100045.92
2023-07-08T03:19:21.491Z,100054.02
2023-07-08T03:20:24.595Z,100049.75
2023-07-08T03:21:27.016Z,100055.16
2023-07-08T03:22:29.323Z,100048.76
2023-07-08T03:23:31.549Z,100054.02
2023-07-08T03:24:34.428Z,100045.34
2023-07-08T03:25:38.333Z,100048.90
2023-07-08T03:26:41.768Z,100048.90
2023-07-08T03:27:45.229Z,100046.20
2023-07-08T03:28:49.234Z,100043.36
2023-07-08T03:29:51.779Z,100042.37
2023-07-08T03:30:54.482Z,100036.11
2023-07-08T03:31:56.967Z,100038.95
2023-07-08T03:33:00.000Z,100039.95
2023-07-08T03:34:02.399Z,100043.50
2023-07-08T03:35:05.673Z,100035.55
2023-07-08T03:37:23.541Z,100030.86
2023-07-08T03:38:25.867Z,100036.68
2023-07-08T03:39:28.269Z,100033.84
2023-07-08T03:40:30.704Z,100022.91
2023-07-08T03:41:33.402Z,100031.00
2023-07-08T03:42:35.712Z,100017.50
2023-07-08T03:43:39.077Z,100014.80
2023-07-08T03:44:41.291Z,100015.09
2023-07-08T03:45:44.069Z,100014.83
2023-07-08T03:46:49.481Z,100015.65
2023-07-08T03:47:53.201Z,100005.17
2023-07-08T03:48:55.582Z,100009.57
2023-07-08T03:49:57.862Z,100007.16
2023-07-08T03:51:01.072Z,100000.63
2023-07-08T03:52:04.203Z,100011.28
2023-07-08T03:53:06.729Z,100005.03
2023-07-08T03:55:20.752Z,100003.16
2023-07-08T03:56:23.012Z,99999.48
2023-07-08T03:57:25.288Z,99992.95
2023-07-08T03:58:27.690Z,99996.64
2023-07-08T03:59:30.413Z,99993.23
2023-07-08T04:00:33.119Z,99995.08
2023-07-08T04:01:37.119Z,99998.63
2023-07-08T04:02:40.790Z,99990.39
2023-07-08T04:03:44.098Z,99993.95
2023-07-08T04:04:47.727Z,99995.65
2023-07-08T04:05:50.019Z,99987.55
2023-07-08T04:06:53.207Z,99992.95
2023-07-08T04:07:56.060Z,99992.38
2023-07-08T04:08:58.413Z,99979.59
2023-07-08T04:10:00.650Z,99985.56
2023-07-08T04:11:03.302Z,99974.06
2023-07-08T04:12:06.206Z,99983.86
2023-07-08T04:13:08.734Z,99974.20
2023-07-08T04:14:11.267Z,99977.61
2023-07-08T04:15:13.905Z,99976.76
2023-07-08T04:17:30.942Z,99992.50
2023-07-08T04:18:33.812Z,99976.76
2023-07-08T04:19:36.077Z,99974.06
2023-07-08T04:20:38.492Z,99973.35
2023-07-08T04:21:42.744Z,99976.19
2023-07-08T04:22:46.106Z,99971.64
2023-07-08T04:23:48.649Z,99967.09
2023-07-08T04:24:50.802Z,99967.95
2023-07-08T04:25:56.521Z,99965.54
2023-07-08T04:26:59.289Z,99963.83
2023-07-08T04:28:01.513Z,99968.23
2023-07-08T04:29:03.722Z,99964.83
2023-07-08T04:30:08.047Z,99971.39
2023-07-08T04:31:10.399Z,99971.25
2023-07-08T04:32:13.273Z,99973.95
2023-07-08T04:33:17.449Z,99964.83
2023-07-08T04:34:20.071Z,99963.97
2023-07-08T04:35:22.313Z,99986.41
2023-07-08T04:36:25.154Z,99966.53
2023-07-08T04:37:27.529Z,99975.62
2023-07-08T04:38:29.730Z,99975.62
2023-07-08T04:39:32.474Z,99964.83
2023-07-08T04:40:35.135Z,99967.70
2023-07-08T04:41:38.261Z,99961.45
2023-07-08T04:42:40.371Z,99964.15
2023-07-08T04:43:43.052Z,99968.83
2023-07-08T04:44:45.345Z,99953.64
2023-07-08T04:45:51.300Z,99962.58
2023-07-08T04:46:56.812Z,99959.17
2023-07-08T04:47:59.176Z,99961.02
2023-07-08T04:49:02.586Z,99951.50
2023-07-08T04:50:05.256Z,99947.67
2023-07-08T04:51:09.218Z,99960.30
2023-07-08T04:52:11.762Z,99946.11
2023-07-08T04:53:14.017Z,99945.25
2023-07-08T04:54:16.593Z,99952.36
2023-07-08T04:55:19.724Z,99949.80
2023-07-08T04:56:22.948Z,99945.97
2023-07-08T04:57:25.249Z,99950.51
2023-07-08T04:58:27.568Z,99951.36
2023-07-08T04:59:29.754Z,99952.22
2023-07-08T05:00:32.066Z,99953.78
2023-07-08T05:01:34.316Z,99954.48
2023-07-08T05:02:36.634Z,99945.54
2023-07-08T05:03:38.992Z,99950.80
2023-07-08T05:04:41.184Z,99951.51
2023-07-08T05:05:45.062Z,99952.05
2023-07-08T05:06:47.714Z,99952.05
2023-07-08T05:07:50.265Z,99950.91
2023-07-08T05:08:52.504Z,99937.28
2023-07-08T05:09:54.802Z,99948.92
2023-07-08T05:10:57.300Z,99947.78
2023-07-08T05:11:59.608Z,99947.92
2023-07-08T05:13:02.368Z,99947.78
2023-07-08T05:14:05.525Z,99939.69
2023-07-08T05:15:08.493Z,99927.19
2023-07-08T05:16:11.689Z,99935.29
2023-07-08T05:17:13.899Z,99931.45
2023-07-08T05:18:16.055Z,99920.80
2023-07-08T05:19:18.683Z,99914.55
2023-07-08T05:20:21.002Z,99920.09
2023-07-08T05:21:24.769Z,99931.87
2023-07-08T05:22:28.442Z,99931.87
2023-07-08T05:23:30.645Z,99926.20
2023-07-08T05:24:33.230Z,99935.14
2023-07-08T05:25:36.426Z,99936.14
2023-07-08T05:26:39.262Z,99936.00
2023-07-08T05:27:41.735Z,99943.38
2023-07-08T05:28:43.994Z,99936.00
2023-07-08T05:29:50.513Z,99933.16
2023-07-08T05:30:54.230Z,99941.25
2023-07-08T05:31:59.606Z,99942.11
2023-07-08T05:33:02.083Z,99940.69
2023-07-08T05:34:04.341Z,99932.73
2023-07-08T05:35:08.551Z,99945.38
2023-07-08T05:36:12.041Z,99931.87
2023-07-08T05:37:15.406Z,99951.77
2023-07-08T05:38:18.858Z,99941.96
2023-07-08T05:39:21.107Z,99950.77
2023-07-08T05:40:23.442Z,99950.91
2023-07-08T05:41:25.692Z,99944.80
2023-07-08T05:42:28.271Z,99954.60
2023-07-08T05:43:30.870Z,99953.75
2023-07-08T05:44:33.506Z,99949.48
2023-07-08T05:45:35.717Z,99960.85
2023-07-08T05:46:38.239Z,99944.66
2023-07-08T05:47:41.219Z,99950.34
2023-07-08T05:48:43.607Z,99948.09
2023-07-08T05:49:45.891Z,99951.65
2023-07-08T05:50:48.720Z,99950.94
2023-07-08T05:51:51.055Z,99952.92
2023-07-08T05:52:53.396Z,99956.62
2023-07-08T05:53:55.590Z,99953.06
2023-07-08T05:54:58.121Z,99954.91
2023-07-08T05:56:00.376Z,99958.60
2023-07-08T05:57:04.604Z,99956.90
2023-07-08T05:58:15.127Z,99961.30
2023-07-08T05:59:11.028Z,99947.81
2023-07-08T06:00:21.092Z,99950.23
2023-07-08T06:01:18.832Z,99951.22
2023-07-08T06:02:21.744Z,99945.83
2023-07-08T06:03:24.287Z,99953.06
2023-07-08T06:04:27.861Z,99959.45
2023-07-08T06:05:30.554Z,99957.75
2023-07-08T06:06:32.948Z,99944.97
2023-07-08T06:07:35.144Z,99948.37
2023-07-08T06:08:37.350Z,99947.53
2023-07-08T06:09:39.600Z,99946.53
2023-07-08T06:10:43.384Z,99943.84
2023-07-08T06:11:46.067Z,99945.54
2023-07-08T06:12:48.812Z,99944.12
2023-07-08T06:13:51.165Z,99951.22
2023-07-08T06:14:53.258Z,99954.63
2023-07-08T06:15:55.815Z,99948.23
2023-07-08T06:16:58.971Z,99954.63
2023-07-08T06:18:01.490Z,99957.19
2023-07-08T06:19:03.686Z,99952.64
2023-07-08T06:20:07.549Z,99952.64
2023-07-08T06:21:09.860Z,99954.34
2023-07-08T06:22:43.452Z,99954.34
2023-07-08T06:23:15.901Z,99953.50
2023-07-08T06:24:19.149Z,99953.64
2023-07-08T06:25:21.423Z,99965.42
2023-07-08T06:26:24.191Z,99961.73
2023-07-08T06:27:26.741Z,99962.86
2023-07-08T06:28:28.901Z,99971.09
2023-07-08T06:29:31.340Z,99968.26
2023-07-08T06:30:33.537Z,99968.40
2023-07-08T06:31:35.857Z,99967.69
2023-07-08T06:32:38.630Z,99972.80
2023-07-08T06:33:40.757Z,99973.94
2023-07-08T06:34:43.255Z,99971.09
2023-07-08T06:35:45.479Z,99970.95
2023-07-08T06:36:47.769Z,99976.22
2023-07-08T06:37:50.289Z,99978.77
2023-07-08T06:38:52.429Z,99981.61
2023-07-08T06:39:54.792Z,99983.31
2023-07-08T06:40:57.885Z,99984.17
2023-07-08T06:42:01.472Z,99988.43
2023-07-08T06:43:05.455Z,99981.19
2023-07-08T06:44:10.170Z,99982.04
2023-07-08T06:45:13.170Z,99973.38
2023-07-08T06:46:16.677Z,99986.01
2023-07-08T06:47:20.123Z,99987.00
2023-07-08T06:48:22.562Z,99987.86
2023-07-08T06:49:25.426Z,99983.31
2023-07-08T06:50:27.575Z,99993.39
2023-07-08T06:51:29.829Z,99988.71
2023-07-08T06:52:32.521Z,99991.55
2023-07-08T06:53:34.824Z,99994.82
2023-07-08T06:54:37.166Z,99996.52
2023-07-08T06:55:41.033Z,100000.92
2023-07-08T06:56:43.424Z,100003.63
2023-07-08T06:57:45.702Z,100006.02
2023-07-08T06:58:47.767Z,100006.58
2023-07-08T06:59:49.926Z,100010.13
2023-07-08T07:00:52.654Z,100002.89
2023-07-08T07:01:55.226Z,100018.94
2023-07-08T07:02:57.864Z,100011.84
2023-07-08T07:04:00.330Z,100014.26
2023-07-08T07:05:04.180Z,100012.27
2023-07-08T07:06:06.525Z,100014.26
2023-07-08T07:07:08.858Z,100013.41
2023-07-08T07:08:11.158Z,100008.72
2023-07-08T07:09:13.502Z,100006.87
2023-07-08T07:10:15.889Z,100015.65
2023-07-08T07:11:18.253Z,100009.12
2023-07-08T07:12:20.507Z,100010.11
2023-07-08T07:13:22.953Z,100013.52
2023-07-08T07:15:29.320Z,100015.37
2023-07-08T07:16:33.137Z,100001.88
2023-07-08T07:17:38.654Z,100010.68
2023-07-08T07:18:43.836Z,100011.39
2023-07-08T07:19:50.071Z,100007.70
2023-07-08T07:22:22.498Z,100003.72
2023-07-08T07:23:30.946Z,100002.55
2023-07-08T07:24:36.196Z,100004.30
2023-07-08T07:25:44.599Z,100008.55
2023-07-08T07:27:04.331Z,100001.45
2023-07-08T07:28:10.468Z,100010.26
2023-07-08T07:29:17.263Z,100003.02
2023-07-08T07:30:26.092Z,99996.77
2023-07-08T07:31:32.411Z,99997.47
2023-07-08T07:32:39.986Z,100005.28
2023-07-08T07:33:43.843Z,99999.89
2023-07-08T07:34:51.857Z,99999.03
2023-07-08T07:35:55.662Z,100002.30
2023-07-08T07:36:58.525Z,100008.55
2023-07-08T07:38:01.762Z,100002.02
2023-07-08T07:39:05.194Z,99998.32
2023-07-08T07:40:12.206Z,100000.17
2023-07-08T07:41:15.122Z,100004.86
2023-07-08T07:42:21.107Z,100003.87
2023-07-08T07:43:24.879Z,99999.17
2023-07-08T07:44:28.447Z,100002.87
2023-07-08T07:45:34.855Z,99999.46
2023-07-08T07:46:39.966Z,100005.71
2023-07-08T07:47:46.341Z,99997.33
2023-07-08T07:48:52.789Z,99998.75
2023-07-08T07:50:01.519Z,99997.90
2023-07-08T07:51:07.189Z,99999.75
2023-07-08T07:52:18.754Z,100007.56
2023-07-08T07:53:27.560Z,99996.91
2023-07-08T07:54:33.833Z,100003.16
2023-07-08T07:55:37.694Z,99999.75
2023-07-08T07:56:41.115Z,100005.14
2023-07-08T07:57:46.149Z,100002.45
2023-07-08T07:58:52.990Z,100003.16
2023-07-08T07:59:58.110Z,100003.16
2023-07-08T08:01:04.974Z,100003.02
2023-07-08T08:02:09.439Z,99993.77
2023-07-08T08:03:22.805Z,99999.89
2023-07-08T08:04:32.562Z,99995.05
2023-07-08T08:05:35.641Z,100005.00
2023-07-08T08:06:41.617Z,100007.38
2023-07-08T08:07:55.511Z,100000.28
2023-07-08T08:08:58.726Z,100000.28
2023-07-08T08:10:05.613Z,99994.02
2023-07-08T08:11:15.834Z,99998.75
2023-07-08T08:12:25.317Z,100006.98
2023-07-08T08:13:30.965Z,99999.17
2023-07-08T08:14:40.413Z,100007.28
2023-07-08T08:15:43.693Z,99997.19
2023-07-08T08:16:46.894Z,100006.28
2023-07-08T08:17:54.923Z,100007.28
2023-07-08T08:19:06.080Z,100008.27
2023-07-08T08:20:10.611Z,100014.52
2023-07-08T08:21:16.636Z,100009.97
2023-07-08T08:22:21.117Z,100002.02
2023-07-08T08:23:27.610Z,100004.44
2023-07-08T08:24:37.797Z,100004.58
2023-07-08T08:25:46.433Z,100016.37
2023-07-08T08:26:53.729Z,100015.38
2023-07-08T08:27:58.666Z,100018.36
2023-07-08T08:29:06.085Z,100022.19
2023-07-08T08:30:17.406Z,100015.09
2023-07-08T08:31:22.948Z,100018.75
2023-07-08T08:32:26.644Z,100013.52
2023-07-08T08:33:39.910Z,100023.47
2023-07-08T08:34:42.831Z,100019.92
2023-07-08T08:35:51.204Z,100019.92
2023-07-08T08:36:56.434Z,100014.80
2023-07-08T08:38:03.553Z,100024.89
2023-07-08T08:39:07.972Z,100022.47
2023-07-08T08:40:33.487Z,100015.65
2023-07-08T08:41:43.145Z,100024.06
2023-07-08T08:42:50.130Z,100019.22
2023-07-08T08:43:58.469Z,100027.17
2023-07-08T08:46:34.972Z,100025.33
2023-07-08T08:47:45.371Z,100022.77
2023-07-08T08:50:30.854Z,100035.25
2023-07-08T08:51:34.327Z,100041.23
2023-07-08T08:52:38.825Z,100047.48
2023-07-08T08:53:41.137Z,100036.69
2023-07-08T08:54:43.477Z,100045.77
2023-07-08T08:55:49.091Z,100052.88
2023-07-08T08:58:28.381Z,100056.56
2023-07-08T08:59:40.330Z,100058.27
2023-07-08T09:00:49.766Z,100063.39
2023-07-08T09:01:53.782Z,100069.50
2023-07-08T09:03:06.581Z,100066.38
2023-07-08T09:05:23.938Z,100071.20
2023-07-08T09:06:36.795Z,100068.23
2023-07-08T09:07:51.949Z,100070.66
2023-07-08T09:08:57.116Z,100077.05
2023-07-08T09:11:28.280Z,100069.08
2023-07-08T09:12:33.703Z,100079.43
2023-07-08T09:13:38.331Z,100077.87
2023-07-08T09:14:40.791Z,100078.88
2023-07-08T09:15:43.085Z,100088.39
2023-07-08T09:16:54.777Z,100083.00
2023-07-08T09:18:01.269Z,100083.00
2023-07-08T09:19:16.323Z,100083.98
2023-07-08T09:20:28.085Z,100081.30
2023-07-08T09:21:36.997Z,100081.30
2023-07-08T09:22:48.557Z,100083.27
2023-07-08T09:23:54.471Z,100086.41
2023-07-08T09:25:12.749Z,100086.12
2023-07-08T09:26:19.328Z,100087.55
2023-07-08T09:27:21.730Z,100083.86
2023-07-08T09:28:39.550Z,100083.58
2023-07-08T09:29:41.934Z,100082.31
2023-07-08T09:30:51.003Z,100084.70
2023-07-08T09:31:54.451Z,100085.55
2023-07-08T09:32:58.413Z,100083.70
2023-07-08T09:34:19.563Z,100089.10
2023-07-08T09:35:31.746Z,100086.12
2023-07-08T09:36:34.132Z,100082.42
2023-07-08T09:37:41.021Z,100080.00
2023-07-08T09:38:45.221Z,100087.11
2023-07-08T09:39:47.404Z,100084.41
2023-07-08T09:40:54.122Z,100092.38
2023-07-08T09:41:56.497Z,100089.39
2023-07-08T09:43:05.155Z,100090.95
2023-07-08T09:44:17.823Z,100083.84
2023-07-08T09:45:23.696Z,100089.95
2023-07-08T09:46:26.226Z,100091.48
2023-07-08T09:47:32.214Z,100087.94
2023-07-08T09:48:36.781Z,100087.66
2023-07-08T09:49:39.214Z,100081.25
2023-07-08T09:50:44.099Z,100084.95
2023-07-08T09:51:47.184Z,100086.66
2023-07-08T09:52:52.582Z,100087.23
2023-07-08T09:53:54.933Z,100090.06
2023-07-08T09:54:57.166Z,100085.52
2023-07-08T09:56:02.069Z,100086.66
2023-07-08T09:57:08.428Z,100096.33
2023-07-08T09:58:17.539Z,100094.77
2023-07-08T09:59:23.503Z,100084.09
2023-07-08T10:00:40.909Z,100087.26
2023-07-08T10:01:43.720Z,100095.05
2023-07-08T10:02:58.079Z,100091.63
2023-07-08T10:04:02.202Z,100093.20
2023-07-08T10:06:32.966Z,100093.45
2023-07-08T10:07:35.301Z,100097.03
2023-07-08T10:08:43.017Z,100094.91
2023-07-08T10:11:07.071Z,100092.59
2023-07-08T10:12:13.033Z,100092.06
2023-07-08T10:13:26.879Z,100090.06
2023-07-08T10:14:44.952Z,100096.33
2023-07-08T10:16:00.005Z,100102.30
2023-07-08T10:18:18.339Z,100091.45
2023-07-08T10:19:22.623Z,100092.91
2023-07-08T10:20:29.220Z,100089.22
2023-07-08T10:21:41.090Z,100087.80
2023-07-08T10:23:04.983Z,100092.20
2023-07-08T10:24:13.866Z,100086.94
2023-07-08T10:25:29.125Z,100087.80
2023-07-08T10:26:33.597Z,100098.88
2023-07-08T10:27:42.253Z,100095.05
2023-07-08T10:29:06.650Z,100093.20
2023-07-08T10:30:22.398Z,100089.78
2023-07-08T10:33:18.422Z,100095.44
2023-07-08T10:34:39.581Z,100095.19
2023-07-08T10:36:01.867Z,100103.29
2023-07-08T10:37:29.354Z,100103.58
2023-07-08T10:38:42.109Z,100102.30
2023-07-08T10:39:50.892Z,100097.74
2023-07-08T10:42:32.128Z,100097.28
2023-07-08T10:43:50.096Z,100103.00
2023-07-08T10:44:56.312Z,100104.00
2023-07-08T10:47:57.084Z,100104.22
2023-07-08T10:49:22.865Z,100106.56
2023-07-08T10:50:38.310Z,100102.69
2023-07-08T10:52:08.900Z,100103.55
2023-07-08T10:53:33.871Z,100098.98
2023-07-08T10:54:51.775Z,100094.58
2023-07-08T10:55:58.195Z,100100.98
2023-07-08T10:58:34.863Z,100096.43
2023-07-08T10:59:59.054Z,100097.31
2023-07-08T11:02:49.995Z,100094.58
2023-07-08T11:05:41.051Z,100088.33
2023-07-08T11:07:02.067Z,100086.09
2023-07-08T11:08:13.998Z,100090.17
2023-07-08T11:11:57.612Z,100086.62
2023-07-08T11:14:15.964Z,100084.91
2023-07-08T11:15:25.173Z,100081.68
2023-07-08T11:16:36.714Z,100087.80
2023-07-08T11:19:00.103Z,100078.22
2023-07-08T11:20:15.286Z,100086.09
2023-07-08T11:21:24.395Z,100080.69
2023-07-08T11:22:30.126Z,100075.28
2023-07-08T11:25:06.782Z,100075.81
2023-07-08T11:27:32.093Z,100079.89
2023-07-08T11:28:34.850Z,100069.88
2023-07-08T11:29:41.152Z,100078.38
2023-07-08T11:30:47.288Z,100072.13
2023-07-08T11:31:52.640Z,100069.27
2023-07-08T11:33:07.578Z,100065.58
2023-07-08T11:34:13.911Z,100073.68
2023-07-08T11:35:23.005Z,100071.98
2023-07-08T11:36:27.538Z,100072.13
2023-07-08T11:37:31.502Z,100067.56
2023-07-08T11:38:34.037Z,100067.89
2023-07-08T11:39:41.862Z,100065.02
2023-07-08T11:41:02.472Z,100068.56
2023-07-08T11:42:12.144Z,100068.56
2023-07-08T11:43:14.891Z,100072.13
2023-07-08T11:44:17.763Z,100063.59
2023-07-08T11:45:26.541Z,100067.99
2023-07-08T11:46:32.458Z,100070.41
2023-07-08T11:47:44.656Z,100070.41
2023-07-08T11:48:50.924Z,100066.71
2023-07-08T11:49:54.689Z,100066.71
2023-07-08T11:50:58.915Z,100073.50
2023-07-08T11:52:03.353Z,100074.49
2023-07-08T11:54:31.276Z,100057.51
2023-07-08T11:55:42.977Z,100066.39
2023-07-08T11:57:02.754Z,100065.10
2023-07-08T11:58:11.330Z,100066.52
2023-07-08T11:59:17.240Z,100070.92
2023-07-08T12:00:25.288Z,100065.23
2023-07-08T12:01:31.158Z,100067.61
2023-07-08T12:02:37.132Z,100057.51
2023-07-08T12:05:03.804Z,100070.70
2023-07-08T12:06:29.581Z,100077.75
2023-07-08T12:08:43.596Z,100074.97
2023-07-08T12:11:12.422Z,100081.64
2023-07-08T12:12:18.856Z,100079.25
2023-07-08T12:13:24.067Z,100083.66
2023-07-08T12:14:29.340Z,100082.70
2023-07-08T12:15:33.234Z,100079.38
2023-07-08T12:17:45.781Z,100079.59
2023-07-08T12:18:50.669Z,100076.83
2023-07-08T12:19:56.201Z,100078.23
2023-07-08T12:21:01.534Z,100079.65
2023-07-08T12:22:05.627Z,100080.35
2023-07-08T12:23:18.138Z,100080.17
2023-07-08T12:24:20.956Z,100080.50
2023-07-08T12:26:38.348Z,100088.11
2023-07-08T12:27:53.420Z,100078.09
2023-07-08T12:28:58.371Z,100077.80
2023-07-08T12:30:01.483Z,100077.80
2023-07-08T12:32:19.241Z,100082.70
2023-07-08T12:33:31.073Z,100080.09
2023-07-08T12:34:34.437Z,100074.83
2023-07-08T12:35:37.892Z,100077.67
2023-07-08T12:36:41.830Z,100078.38
2023-07-08T12:37:44.807Z,100079.67
2023-07-08T12:38:50.497Z,100070.89
2023-07-08T12:39:57.195Z,100073.27
2023-07-08T12:41:02.808Z,100079.38
2023-07-08T12:42:11.451Z,100077.67
2023-07-08T12:43:14.875Z,100074.59
2023-07-08T12:44:20.542Z,100074.27
2023-07-08T12:45:25.338Z,100066.16
2023-07-08T12:46:29.787Z,100074.97
2023-07-08T12:47:32.729Z,100074.83
2023-07-08T12:48:35.102Z,100075.97
2023-07-08T12:49:37.230Z,100073.41
2023-07-08T12:50:39.664Z,100069.56
2023-07-08T12:51:44.559Z,100072.97
2023-07-08T12:52:47.902Z,100075.68
2023-07-08T12:53:52.123Z,100073.68
2023-07-08T12:54:54.338Z,100072.83
2023-07-08T12:55:59.360Z,100070.27
2023-07-08T12:57:02.393Z,100072.56
2023-07-08T12:58:05.072Z,100069.30
2023-07-08T12:59:07.967Z,100077.14
2023-07-08T13:01:28.020Z,100060.34
2023-07-08T13:02:33.542Z,100071.78
2023-07-08T13:04:57.862Z,100074.84
2023-07-08T13:06:05.116Z,100076.77
2023-07-08T13:07:11.047Z,100072.36
2023-07-08T13:08:15.976Z,100077.20
2023-07-08T13:09:36.383Z,100077.76
2023-07-08T13:10:40.020Z,100074.34
2023-07-08T13:11:42.880Z,100072.64
2023-07-08T13:12:47.084Z,100079.22
2023-07-08T13:13:53.466Z,100072.97
2023-07-08T13:14:59.375Z,100072.26
2023-07-08T13:16:02.215Z,100071.26
2023-07-08T13:17:05.782Z,100072.40
2023-07-08T13:18:20.749Z,100077.80
2023-07-08T13:19:24.615Z,100078.37
2023-07-08T13:20:27.603Z,100074.10
2023-07-08T13:21:30.926Z,100081.22
2023-07-08T13:22:33.844Z,100081.50
2023-07-08T13:23:36.828Z,100078.38
2023-07-08T13:24:38.949Z,100080.08
2023-07-08T13:25:42.282Z,100075.53